sensor_id;sensor_type;location;lat;lon;timestamp;pressure;altitude;pressure_sealevel;temperature;humidity
60852;BME280;48553;50.766;2.900;2023-04-27T00:00:27;101270.38;;;10.23;64.44
60852;BME280;48553;50.766;2.900;2023-04-27T00:03:28;101262.66;;;10.25;64.36
60852;BME280;48553;50.766;2.900;2023-04-27T00:06:29;101277.97;;;10.26;64.14
60852;BME280;48553;50.766;2.900;2023-04-27T00:09:29;101264.44;;;10.21;64.34
60852;BME280;48553;50.766;2.900;2023-04-27T00:12:30;101266.06;;;10.22;64.36
60852;BME280;48553;50.766;2.900;2023-04-27T00:15:30;101269.09;;;10.20;64.48
60852;BME280;48553;50.766;2.900;2023-04-27T00:18:31;101271.50;;;10.13;64.49
60852;BME280;48553;50.766;2.900;2023-04-27T00:21:31;101265.69;;;10.15;64.73
60852;BME280;48553;50.766;2.900;2023-04-27T00:24:32;101257.63;;;10.10;64.77
60852;BME280;48553;50.766;2.900;2023-04-27T00:27:33;101261.53;;;10.09;64.60
60852;BME280;48553;50.766;2.900;2023-04-27T00:30:33;101262.78;;;10.02;64.63
60852;BME280;48553;50.766;2.900;2023-04-27T00:33:35;101256.16;;;10.03;65.11
60852;BME280;48553;50.766;2.900;2023-04-27T00:36:35;101261.50;;;10.00;64.87
60852;BME280;48553;50.766;2.900;2023-04-27T00:39:36;101257.13;;;9.99;64.82
60852;BME280;48553;50.766;2.900;2023-04-27T00:42:36;101256.19;;;9.95;64.72
60852;BME280;48553;50.766;2.900;2023-04-27T00:45:40;101245.03;;;9.91;64.83
60852;BME280;48553;50.766;2.900;2023-04-27T00:48:42;101240.38;;;9.92;64.93
60852;BME280;48553;50.766;2.900;2023-04-27T00:51:43;101241.03;;;9.89;64.94
60852;BME280;48553;50.766;2.900;2023-04-27T00:54:43;101246.00;;;9.87;65.02
60852;BME280;48553;50.766;2.900;2023-04-27T00:57:44;101248.91;;;9.81;65.07
60852;BME280;48553;50.766;2.900;2023-04-27T01:00:44;101248.06;;;9.81;64.91
60852;BME280;48553;50.766;2.900;2023-04-27T01:03:46;101243.09;;;9.74;65.07
60852;BME280;48553;50.766;2.900;2023-04-27T01:06:46;101239.22;;;9.75;65.21
60852;BME280;48553;50.766;2.900;2023-04-27T01:09:47;101229.41;;;9.74;65.30
60852;BME280;48553;50.766;2.900;2023-04-27T01:12:47;101236.78;;;9.74;65.37
60852;BME280;48553;50.766;2.900;2023-04-27T01:15:47;101230.81;;;9.72;64.99
60852;BME280;48553;50.766;2.900;2023-04-27T01:18:48;101226.19;;;9.72;65.25
60852;BME280;48553;50.766;2.900;2023-04-27T01:21:48;101225.50;;;9.67;65.15
60852;BME280;48553;50.766;2.900;2023-04-27T01:24:49;101228.09;;;9.63;65.35
60852;BME280;48553;50.766;2.900;2023-04-27T01:27:49;101228.38;;;9.61;65.46
60852;BME280;48553;50.766;2.900;2023-04-27T01:30:50;101230.31;;;9.61;65.34
60852;BME280;48553;50.766;2.900;2023-04-27T01:33:50;101225.47;;;9.58;65.36
60852;BME280;48553;50.766;2.900;2023-04-27T01:36:51;101219.50;;;9.56;65.54
60852;BME280;48553;50.766;2.900;2023-04-27T01:39:51;101221.28;;;9.52;65.23
60852;BME280;48553;50.766;2.900;2023-04-27T01:42:52;101221.59;;;9.50;65.83
60852;BME280;48553;50.766;2.900;2023-04-27T01:45:53;101218.34;;;9.48;65.77
60852;BME280;48553;50.766;2.900;2023-04-27T01:48:53;101212.09;;;9.48;65.49
60852;BME280;48553;50.766;2.900;2023-04-27T01:51:53;101215.44;;;9.45;65.62
60852;BME280;48553;50.766;2.900;2023-04-27T01:54:54;101212.25;;;9.43;65.59
60852;BME280;48553;50.766;2.900;2023-04-27T01:57:54;101210.75;;;9.36;65.58
60852;BME280;48553;50.766;2.900;2023-04-27T02:00:55;101229.25;;;9.39;65.67
60852;BME280;48553;50.766;2.900;2023-04-27T02:03:55;101213.00;;;9.34;65.61
60852;BME280;48553;50.766;2.900;2023-04-27T02:06:56;101216.03;;;9.33;65.54
60852;BME280;48553;50.766;2.900;2023-04-27T02:09:56;101218.47;;;9.34;65.42
60852;BME280;48553;50.766;2.900;2023-04-27T02:12:56;101211.22;;;9.30;65.43
60852;BME280;48553;50.766;2.900;2023-04-27T02:15:57;101209.13;;;9.27;65.58
60852;BME280;48553;50.766;2.900;2023-04-27T02:18:57;101217.31;;;9.27;65.62
60852;BME280;48553;50.766;2.900;2023-04-27T02:21:58;101213.91;;;9.21;65.63
60852;BME280;48553;50.766;2.900;2023-04-27T02:24:59;101216.94;;;9.19;65.40
60852;BME280;48553;50.766;2.900;2023-04-27T02:27:59;101219.53;;;9.16;65.53
60852;BME280;48553;50.766;2.900;2023-04-27T02:31:00;101219.53;;;9.16;65.61
60852;BME280;48553;50.766;2.900;2023-04-27T02:34:00;101220.13;;;9.13;65.33
60852;BME280;48553;50.766;2.900;2023-04-27T02:37:01;101218.03;;;9.10;65.51
60852;BME280;48553;50.766;2.900;2023-04-27T02:40:01;101219.16;;;9.09;65.30
60852;BME280;48553;50.766;2.900;2023-04-27T02:43:03;101220.59;;;9.06;65.67
60852;BME280;48553;50.766;2.900;2023-04-27T02:46:04;101210.13;;;8.99;65.47
60852;BME280;48553;50.766;2.900;2023-04-27T02:49:04;101221.06;;;8.99;65.64
60852;BME280;48553;50.766;2.900;2023-04-27T02:52:05;101207.69;;;8.98;65.39
60852;BME280;48553;50.766;2.900;2023-04-27T02:55:06;101204.47;;;8.96;65.55
60852;BME280;48553;50.766;2.900;2023-04-27T02:58:06;101205.91;;;8.93;65.52
60852;BME280;48553;50.766;2.900;2023-04-27T03:01:07;101205.91;;;8.93;65.19
60852;BME280;48553;50.766;2.900;2023-04-27T03:04:07;101197.84;;;8.88;65.35
60852;BME280;48553;50.766;2.900;2023-04-27T03:07:08;101193.81;;;8.86;65.33
60852;BME280;48553;50.766;2.900;2023-04-27T03:10:08;101191.19;;;8.81;65.54
60852;BME280;48553;50.766;2.900;2023-04-27T03:13:09;101182.19;;;8.80;65.30
60852;BME280;48553;50.766;2.900;2023-04-27T03:16:09;101177.84;;;8.79;65.33
60852;BME280;48553;50.766;2.900;2023-04-27T03:19:10;101179.25;;;8.76;65.63
60852;BME280;48553;50.766;2.900;2023-04-27T03:22:11;101181.03;;;8.72;65.33
60852;BME280;48553;50.766;2.900;2023-04-27T03:25:11;101179.88;;;8.73;65.63
60852;BME280;48553;50.766;2.900;2023-04-27T03:28:11;101178.91;;;8.69;65.42
60852;BME280;48553;50.766;2.900;2023-04-27T03:31:13;101192.69;;;8.64;65.50
60852;BME280;48553;50.766;2.900;2023-04-27T03:34:13;101182.06;;;8.63;65.30
60852;BME280;48553;50.766;2.900;2023-04-27T03:37:14;101191.69;;;8.60;65.49
60852;BME280;48553;50.766;2.900;2023-04-27T03:40:14;101197.59;;;8.53;65.61
60852;BME280;48553;50.766;2.900;2023-04-27T03:43:15;101184.75;;;8.54;65.67
60852;BME280;48553;50.766;2.900;2023-04-27T03:46:15;101183.63;;;8.55;65.48
60852;BME280;48553;50.766;2.900;2023-04-27T03:49:16;101189.41;;;8.53;65.36
60852;BME280;48553;50.766;2.900;2023-04-27T03:52:16;101197.09;;;8.51;65.46
60852;BME280;48553;50.766;2.900;2023-04-27T03:55:17;101193.06;;;8.49;65.75
60852;BME280;48553;50.766;2.900;2023-04-27T03:58:17;101194.78;;;8.45;65.81
60852;BME280;48553;50.766;2.900;2023-04-27T04:01:18;101198.16;;;8.42;65.76
60852;BME280;48553;50.766;2.900;2023-04-27T04:04:18;101202.53;;;8.43;65.70
60852;BME280;48553;50.766;2.900;2023-04-27T04:07:19;101203.91;;;8.40;65.49
60852;BME280;48553;50.766;2.900;2023-04-27T04:10:19;101205.66;;;8.36;65.56
60852;BME280;48553;50.766;2.900;2023-04-27T04:13:20;101210.28;;;8.35;65.38
60852;BME280;48553;50.766;2.900;2023-04-27T04:16:20;101211.72;;;8.33;65.76
60852;BME280;48553;50.766;2.900;2023-04-27T04:19:21;101213.44;;;8.29;65.60
60852;BME280;48553;50.766;2.900;2023-04-27T04:22:21;101221.63;;;8.29;65.64
60852;BME280;48553;50.766;2.900;2023-04-27T04:25:22;101220.16;;;8.23;65.81
60852;BME280;48553;50.766;2.900;2023-04-27T04:28:25;101218.53;;;8.22;65.88
60852;BME280;48553;50.766;2.900;2023-04-27T04:31:25;101216.41;;;8.19;65.84
60852;BME280;48553;50.766;2.900;2023-04-27T04:34:26;101226.03;;;8.16;65.71
60852;BME280;48553;50.766;2.900;2023-04-27T04:37:28;101232.81;;;8.19;65.56
60852;BME280;48553;50.766;2.900;2023-04-27T04:40:28;101229.38;;;8.13;65.84
60852;BME280;48553;50.766;2.900;2023-04-27T04:43:29;101230.69;;;8.15;65.99
60852;BME280;48553;50.766;2.900;2023-04-27T04:46:29;101236.25;;;8.10;65.87
60852;BME280;48553;50.766;2.900;2023-04-27T04:49:30;101240.41;;;8.08;66.12
60852;BME280;48553;50.766;2.900;2023-04-27T04:52:30;101240.22;;;8.04;65.87
60852;BME280;48553;50.766;2.900;2023-04-27T04:55:31;101234.44;;;8.06;65.94
60852;BME280;48553;50.766;2.900;2023-04-27T04:58:31;101245.06;;;8.07;66.14
60852;BME280;48553;50.766;2.900;2023-04-27T05:01:32;101241.03;;;8.05;66.19
60852;BME280;48553;50.766;2.900;2023-04-27T05:04:32;101235.56;;;8.05;66.14
60852;BME280;48553;50.766;2.900;2023-04-27T05:07:33;101226.56;;;8.04;66.17
60852;BME280;48553;50.766;2.900;2023-04-27T05:10:34;101235.88;;;8.03;66.15
60852;BME280;48553;50.766;2.900;2023-04-27T05:13:34;101232.97;;;8.00;66.51
60852;BME280;48553;50.766;2.900;2023-04-27T05:16:35;101230.22;;;8.00;66.82
60852;BME280;48553;50.766;2.900;2023-04-27T05:19:36;101226.38;;;8.01;66.72
60852;BME280;48553;50.766;2.900;2023-04-27T05:22:36;101223.47;;;7.97;66.47
60852;BME280;48553;50.766;2.900;2023-04-27T05:25:36;101226.38;;;8.01;66.75
60852;BME280;48553;50.766;2.900;2023-04-27T05:28:41;101229.72;;;7.98;66.68
60852;BME280;48553;50.766;2.900;2023-04-27T05:31:41;101225.06;;;7.98;67.36
60852;BME280;48553;50.766;2.900;2023-04-27T05:34:42;101226.66;;;7.99;66.93
60852;BME280;48553;50.766;2.900;2023-04-27T05:37:43;101235.47;;;7.96;67.35
60852;BME280;48553;50.766;2.900;2023-04-27T05:40:44;101230.03;;;7.96;67.52
60852;BME280;48553;50.766;2.900;2023-04-27T05:43:44;101231.31;;;7.99;67.35
60852;BME280;48553;50.766;2.900;2023-04-27T05:46:45;101227.16;;;8.01;67.46
60852;BME280;48553;50.766;2.900;2023-04-27T05:49:52;101225.75;;;8.04;67.76
60852;BME280;48553;50.766;2.900;2023-04-27T05:52:52;101217.25;;;8.05;67.69
60852;BME280;48553;50.766;2.900;2023-04-27T05:55:52;101226.06;;;8.02;67.93
60852;BME280;48553;50.766;2.900;2023-04-27T05:58:53;101213.44;;;8.06;67.95
60852;BME280;48553;50.766;2.900;2023-04-27T06:01:53;101220.19;;;8.09;68.03
60852;BME280;48553;50.766;2.900;2023-04-27T06:04:54;101225.53;;;8.14;68.01
60852;BME280;48553;50.766;2.900;2023-04-27T06:07:55;101232.13;;;8.13;67.75
60852;BME280;48553;50.766;2.900;2023-04-27T06:10:55;101239.69;;;8.16;67.82
60852;BME280;48553;50.766;2.900;2023-04-27T06:13:56;101220.56;;;8.16;68.10
60852;BME280;48553;50.766;2.900;2023-04-27T06:16:56;101227.03;;;8.20;68.34
60852;BME280;48553;50.766;2.900;2023-04-27T06:19:57;101223.19;;;8.21;68.30
60852;BME280;48553;50.766;2.900;2023-04-27T06:22:57;101222.56;;;8.24;68.36
60852;BME280;48553;50.766;2.900;2023-04-27T06:25:59;101218.59;;;8.30;68.41
60852;BME280;48553;50.766;2.900;2023-04-27T06:29:00;101215.94;;;8.39;68.13
60852;BME280;48553;50.766;2.900;2023-04-27T06:32:03;101209.88;;;8.42;68.47
60852;BME280;48553;50.766;2.900;2023-04-27T06:35:06;101223.31;;;8.52;68.10
60852;BME280;48553;50.766;2.900;2023-04-27T06:38:06;101233.00;;;8.59;68.29
60852;BME280;48553;50.766;2.900;2023-04-27T06:41:06;101228.00;;;8.61;68.21
60852;BME280;48553;50.766;2.900;2023-04-27T06:44:07;101222.13;;;8.67;68.07
60852;BME280;48553;50.766;2.900;2023-04-27T06:47:07;101218.28;;;8.68;68.11
60852;BME280;48553;50.766;2.900;2023-04-27T06:50:08;101241.00;;;8.77;68.11
60852;BME280;48553;50.766;2.900;2023-04-27T06:53:09;101225.59;;;8.82;68.10
60852;BME280;48553;50.766;2.900;2023-04-27T06:56:10;101222.09;;;8.90;67.48
60852;BME280;48553;50.766;2.900;2023-04-27T06:59:11;101232.59;;;8.96;67.63
60852;BME280;48553;50.766;2.900;2023-04-27T07:02:11;101222.84;;;9.04;67.34
60852;BME280;48553;50.766;2.900;2023-04-27T07:05:11;101224.31;;;9.10;67.19
60852;BME280;48553;50.766;2.900;2023-04-27T07:08:12;101234.19;;;9.20;67.13
60852;BME280;48553;50.766;2.900;2023-04-27T07:11:12;101220.53;;;9.29;66.82
60852;BME280;48553;50.766;2.900;2023-04-27T07:14:13;101217.34;;;9.35;66.77
60852;BME280;48553;50.766;2.900;2023-04-27T07:17:14;101223.34;;;9.46;66.73
60852;BME280;48553;50.766;2.900;2023-04-27T07:20:14;101224.19;;;9.55;66.76
60852;BME280;48553;50.766;2.900;2023-04-27T07:23:16;101220.19;;;9.61;67.20
60852;BME280;48553;50.766;2.900;2023-04-27T07:26:16;101217.28;;;9.67;66.48
60852;BME280;48553;50.766;2.900;2023-04-27T07:29:17;101221.50;;;9.73;66.28
60852;BME280;48553;50.766;2.900;2023-04-27T07:32:17;101221.19;;;9.83;66.34
60852;BME280;48553;50.766;2.900;2023-04-27T07:35:18;101222.34;;;9.91;66.22
60852;BME280;48553;50.766;2.900;2023-04-27T07:38:19;101224.44;;;10.02;66.35
60852;BME280;48553;50.766;2.900;2023-04-27T07:41:20;101226.41;;;10.11;66.13
60852;BME280;48553;50.766;2.900;2023-04-27T07:44:22;101215.78;;;10.18;66.15
60852;BME280;48553;50.766;2.900;2023-04-27T07:47:23;101214.47;;;10.24;65.79
60852;BME280;48553;50.766;2.900;2023-04-27T07:50:23;101213.22;;;10.30;65.71
60852;BME280;48553;50.766;2.900;2023-04-27T07:53:24;101220.16;;;10.36;65.22
60852;BME280;48553;50.766;2.900;2023-04-27T07:56:25;101219.19;;;10.41;65.43
60852;BME280;48553;50.766;2.900;2023-04-27T07:59:29;101217.56;;;10.49;65.29
60852;BME280;48553;50.766;2.900;2023-04-27T08:02:29;101216.75;;;10.57;65.47
60852;BME280;48553;50.766;2.900;2023-04-27T08:05:30;101214.63;;;10.62;65.04
60852;BME280;48553;50.766;2.900;2023-04-27T08:08:31;101223.50;;;10.68;65.01
60852;BME280;48553;50.766;2.900;2023-04-27T08:11:31;101230.28;;;10.71;65.21
60852;BME280;48553;50.766;2.900;2023-04-27T08:14:35;101239.13;;;10.76;64.72
60852;BME280;48553;50.766;2.900;2023-04-27T08:17:35;101235.56;;;10.84;64.72
60852;BME280;48553;50.766;2.900;2023-04-27T08:20:36;101226.53;;;10.93;64.33
60852;BME280;48553;50.766;2.900;2023-04-27T08:23:36;101220.22;;;11.01;64.00
60852;BME280;48553;50.766;2.900;2023-04-27T08:26:39;101214.53;;;11.15;63.76
60852;BME280;48553;50.766;2.900;2023-04-27T08:29:47;101219.97;;;11.23;63.54
60852;BME280;48553;50.766;2.900;2023-04-27T08:32:47;101222.22;;;11.30;63.46
60852;BME280;48553;50.766;2.900;2023-04-27T08:35:48;101224.63;;;11.32;63.48
60852;BME280;48553;50.766;2.900;2023-04-27T08:38:49;101226.72;;;11.35;63.64
60852;BME280;48553;50.766;2.900;2023-04-27T08:41:51;101229.91;;;11.45;63.24
60852;BME280;48553;50.766;2.900;2023-04-27T08:44:51;101227.94;;;11.55;63.55
60852;BME280;48553;50.766;2.900;2023-04-27T08:47:52;101221.72;;;11.66;63.33
60852;BME280;48553;50.766;2.900;2023-04-27T08:50:55;101210.09;;;11.69;62.84
60852;BME280;48553;50.766;2.900;2023-04-27T08:53:56;101214.72;;;11.78;62.67
60852;BME280;48553;50.766;2.900;2023-04-27T08:56:57;101225.97;;;11.85;62.13
60852;BME280;48553;50.766;2.900;2023-04-27T08:59:59;101223.22;;;11.85;62.19
60852;BME280;48553;50.766;2.900;2023-04-27T09:03:00;101224.53;;;11.87;61.91
60852;BME280;48553;50.766;2.900;2023-04-27T09:06:03;101218.03;;;11.92;62.01
60852;BME280;48553;50.766;2.900;2023-04-27T09:09:04;101216.25;;;11.96;62.03
60852;BME280;48553;50.766;2.900;2023-04-27T09:12:21;101220.56;;;12.06;61.76
60852;BME280;48553;50.766;2.900;2023-04-27T09:15:21;101221.81;;;12.08;61.33
60852;BME280;48553;50.766;2.900;2023-04-27T09:18:22;101213.38;;;12.14;61.52
60852;BME280;48553;50.766;2.900;2023-04-27T09:21:25;101212.53;;;12.22;61.29
60852;BME280;48553;50.766;2.900;2023-04-27T09:24:26;101204.19;;;12.30;60.95
60852;BME280;48553;50.766;2.900;2023-04-27T09:27:27;101210.41;;;12.40;60.84
60852;BME280;48553;50.766;2.900;2023-04-27T09:30:28;101204.72;;;12.45;61.77
60852;BME280;48553;50.766;2.900;2023-04-27T09:33:31;101211.28;;;12.52;61.60
60852;BME280;48553;50.766;2.900;2023-04-27T09:36:31;101209.47;;;12.57;61.67
60852;BME280;48553;50.766;2.900;2023-04-27T09:39:32;101210.88;;;12.63;61.65
60852;BME280;48553;50.766;2.900;2023-04-27T09:42:33;101207.00;;;12.76;60.47
60852;BME280;48553;50.766;2.900;2023-04-27T09:45:34;101207.25;;;12.83;60.80
60852;BME280;48553;50.766;2.900;2023-04-27T09:48:37;101210.72;;;12.92;60.87
60852;BME280;48553;50.766;2.900;2023-04-27T09:51:38;101201.09;;;12.99;60.29
60852;BME280;48553;50.766;2.900;2023-04-27T09:54:39;101185.41;;;13.11;61.00
60852;BME280;48553;50.766;2.900;2023-04-27T09:57:50;101186.56;;;13.23;61.02
60852;BME280;48553;50.766;2.900;2023-04-27T10:04:10;101194.84;;;13.84;59.62
60852;BME280;48553;50.766;2.900;2023-04-27T10:07:13;101187.09;;;14.02;59.33
60852;BME280;48553;50.766;2.900;2023-04-27T10:10:15;101171.13;;;14.08;59.35
60852;BME280;48553;50.766;2.900;2023-04-27T10:13:22;101168.78;;;14.22;59.51
60852;BME280;48553;50.766;2.900;2023-04-27T10:16:23;101151.84;;;14.36;59.54
60852;BME280;48553;50.766;2.900;2023-04-27T10:19:24;101150.53;;;14.46;59.28
60852;BME280;48553;50.766;2.900;2023-04-27T10:25:40;101155.69;;;14.91;58.91
60852;BME280;48553;50.766;2.900;2023-04-27T10:28:41;101157.66;;;14.91;59.10
60852;BME280;48553;50.766;2.900;2023-04-27T10:31:46;101149.03;;;15.08;56.98
60852;BME280;48553;50.766;2.900;2023-04-27T10:34:48;101142.69;;;15.23;57.14
60852;BME280;48553;50.766;2.900;2023-04-27T10:37:48;101135.22;;;15.24;57.25
60852;BME280;48553;50.766;2.900;2023-04-27T10:40:59;101144.63;;;15.39;57.92
60852;BME280;48553;50.766;2.900;2023-04-27T10:44:16;101136.75;;;15.57;57.24
60852;BME280;48553;50.766;2.900;2023-04-27T10:47:17;101143.22;;;15.64;57.78
60852;BME280;48553;50.766;2.900;2023-04-27T10:50:23;101143.66;;;15.66;56.96
60852;BME280;48553;50.766;2.900;2023-04-27T10:53:23;101143.16;;;15.96;56.85
60852;BME280;48553;50.766;2.900;2023-04-27T10:56:24;101143.75;;;16.05;56.60
60852;BME280;48553;50.766;2.900;2023-04-27T10:59:25;101139.53;;;16.12;56.16
60852;BME280;48553;50.766;2.900;2023-04-27T11:02:27;101136.47;;;16.36;56.71
60852;BME280;48553;50.766;2.900;2023-04-27T11:05:28;101123.06;;;16.38;55.98
60852;BME280;48553;50.766;2.900;2023-04-27T11:08:32;101122.53;;;16.52;54.98
60852;BME280;48553;50.766;2.900;2023-04-27T11:11:36;101116.25;;;16.55;55.20
60852;BME280;48553;50.766;2.900;2023-04-27T11:14:37;101111.44;;;16.72;55.21
60852;BME280;48553;50.766;2.900;2023-04-27T11:17:37;101109.25;;;16.81;55.13
60852;BME280;48553;50.766;2.900;2023-04-27T11:20:38;101103.84;;;16.91;55.66
60852;BME280;48553;50.766;2.900;2023-04-27T11:23:39;101087.06;;;17.04;54.62
60852;BME280;48553;50.766;2.900;2023-04-27T11:26:40;101084.88;;;17.17;54.68
60852;BME280;48553;50.766;2.900;2023-04-27T11:29:40;101094.09;;;17.24;55.27
60852;BME280;48553;50.766;2.900;2023-04-27T11:32:41;101100.28;;;17.41;54.04
60852;BME280;48553;50.766;2.900;2023-04-27T11:35:42;101102.78;;;17.49;53.79
60852;BME280;48553;50.766;2.900;2023-04-27T11:38:42;101086.94;;;17.50;54.35
60852;BME280;48553;50.766;2.900;2023-04-27T11:41:43;101084.25;;;17.57;54.46
60852;BME280;48553;50.766;2.900;2023-04-27T11:44:54;101078.88;;;17.68;54.21
60852;BME280;48553;50.766;2.900;2023-04-27T11:47:57;101073.84;;;17.77;54.02
60852;BME280;48553;50.766;2.900;2023-04-27T11:50:58;101074.44;;;17.93;52.72
60852;BME280;48553;50.766;2.900;2023-04-27T11:54:06;101072.56;;;18.01;53.20
60852;BME280;48553;50.766;2.900;2023-04-27T11:57:06;101065.06;;;18.05;53.80
60852;BME280;48553;50.766;2.900;2023-04-27T12:00:07;101060.00;;;18.11;52.52
60852;BME280;48553;50.766;2.900;2023-04-27T12:03:11;101064.03;;;18.17;52.85
